Time;durP1;ratioP1;P1;durP2;ratioP2;P2;SDS_P1;SDS_P2;PMS_P1;PMS_P2;Temp;Humidity;BMP_temperature;BMP_pressure;BME280_temperature;BME280_humidity;BME280_pressure;Samples;Min_cycle;Max_cycle;Signal;HPM_P1;HPM_P2
2022/04/25 00:00:44;;;;;;;18.67;15.80;;;;;;;7.70;100.00;99725.38;5046967;28;20551;-71
2022/04/25 00:03:11;;;;;;;17.30;14.87;;;;;;;7.69;100.00;99724.53;5047852;28;20194;-71
2022/04/25 00:05:37;;;;;;;17.40;15.07;;;;;;;7.70;100.00;99727.97;5047774;28;20214;-71
2022/04/25 00:08:05;;;;;;;19.47;15.10;;;;;;;7.70;100.00;99731.41;5047660;28;20219;-70
2022/04/25 00:10:32;;;;;;;18.77;16.23;;;;;;;7.70;100.00;99727.97;5048590;28;20199;-70
2022/04/25 00:12:59;;;;;;;18.90;15.10;;;;;;;7.70;100.00;99726.22;5048081;28;20901;-71
2022/04/25 00:15:27;;;;;;;19.10;15.23;;;;;;;7.73;100.00;99728.75;5047169;28;20203;-71
2022/04/25 00:17:54;;;;;;;19.00;15.30;;;;;;;7.73;100.00;99731.34;5047311;28;20890;-71
2022/04/25 00:20:20;;;;;;;22.57;16.00;;;;;;;7.73;100.00;99728.75;5051666;28;20218;-71
2022/04/25 00:22:47;;;;;;;18.67;15.87;;;;;;;7.74;100.00;99730.47;5048126;28;20211;-70
2022/04/25 00:25:13;;;;;;;19.60;15.63;;;;;;;7.73;100.00;99728.75;5042431;28;20230;-71
2022/04/25 00:27:40;;;;;;;20.23;16.43;;;;;;;7.73;100.00;99731.34;5045477;28;20289;-71
2022/04/25 00:30:07;;;;;;;18.67;15.13;;;;;;;7.72;100.00;99737.44;5047627;28;20196;-71
2022/04/25 00:32:35;;;;;;;18.67;14.93;;;;;;;7.73;100.00;99741.72;5046810;28;20199;-71
2022/04/25 00:35:03;;;;;;;17.27;15.37;;;;;;;7.73;100.00;99738.28;5048049;28;20199;-71
2022/04/25 00:37:30;;;;;;;18.47;15.07;;;;;;;7.72;100.00;99734.84;5047947;28;20231;-70
2022/04/25 00:39:57;;;;;;;17.57;14.83;;;;;;;7.74;100.00;99732.22;5047038;28;20207;-70
2022/04/25 00:42:26;;;;;;;21.00;14.40;;;;;;;7.74;100.00;99727.03;5047429;28;20199;-72
2022/04/25 00:44:53;;;;;;;19.00;16.20;;;;;;;7.75;100.00;99731.31;5047117;28;20199;-71
2022/04/25 00:47:21;;;;;;;17.47;15.10;;;;;;;7.74;100.00;99732.22;5046926;28;20230;-71
2022/04/25 00:49:49;;;;;;;19.10;15.67;;;;;;;7.73;100.00;99733.94;5046278;28;20269;-70
2022/04/25 00:52:16;;;;;;;18.23;15.67;;;;;;;7.73;100.00;99733.09;5046788;28;20199;-71
2022/04/25 00:54:43;;;;;;;19.73;15.73;;;;;;;7.73;100.00;99723.56;5047173;28;20214;-71
2022/04/25 00:57:10;;;;;;;18.50;15.07;;;;;;;7.72;100.00;99719.28;5048669;28;20924;-70
2022/04/25 00:59:37;;;;;;;18.53;15.50;;;;;;;7.71;100.00;99719.31;5046209;28;20233;-70
2022/04/25 01:02:04;;;;;;;18.33;15.97;;;;;;;7.69;100.00;99714.16;5046677;28;20279;-71
2022/04/25 01:04:31;;;;;;;17.60;15.13;;;;;;;7.70;100.00;99715.00;5049339;28;20203;-71
2022/04/25 01:06:59;;;;;;;18.33;15.67;;;;;;;7.67;100.00;99721.16;5045902;28;20232;-71
2022/04/25 01:09:25;;;;;;;19.53;14.73;;;;;;;7.68;100.00;99722.00;5047135;28;20229;-71
2022/04/25 01:11:52;;;;;;;19.93;14.87;;;;;;;7.67;100.00;99720.28;5045329;28;20302;-71
2022/04/25 01:14:21;;;;;;;18.43;14.53;;;;;;;7.66;100.00;99726.38;5046547;28;20686;-71
2022/04/25 01:16:48;;;;;;;17.13;14.90;;;;;;;7.66;100.00;99724.63;5047813;28;20237;-71
2022/04/25 01:19:15;;;;;;;17.00;14.80;;;;;;;7.66;100.00;99721.19;5051077;28;20225;-71
2022/04/25 01:21:43;;;;;;;17.47;14.13;;;;;;;7.65;100.00;99730.72;5046372;28;20677;-71
2022/04/25 01:29:42;;;;;;;15.43;13.33;;;;;;;7.64;100.00;99736.81;5079099;28;20705;-71
2022/04/25 01:32:09;;;;;;;17.20;13.77;;;;;;;7.63;100.00;99736.84;5045582;28;20203;-70
2022/04/25 01:34:37;;;;;;;16.40;13.77;;;;;;;7.62;100.00;99738.59;5042267;28;20501;-71
2022/04/25 01:37:06;;;;;;;16.37;13.87;;;;;;;7.59;100.00;99742.09;5046330;28;20286;-71
2022/04/25 01:39:35;;;;;;;17.27;12.77;;;;;;;7.57;100.00;99746.50;5047144;28;20233;-71
2022/04/25 01:42:02;;;;;;;16.20;13.47;;;;;;;7.54;100.00;99748.31;5046090;28;20670;-71
2022/04/25 01:44:29;;;;;;;17.23;13.10;;;;;;;7.52;100.00;99753.53;5049893;28;20218;-70
2022/04/25 01:46:55;;;;;;;15.30;12.17;;;;;;;7.52;100.00;99748.34;5045984;28;20243;-70
2022/04/25 01:49:22;;;;;;;19.50;12.60;;;;;;;7.49;100.00;99745.88;5045210;28;20204;-72
2022/04/25 01:51:48;;;;;;;22.10;12.53;;;;;;;7.45;100.00;99744.22;5041578;28;20207;-72
2022/04/25 01:54:21;;;;;;;15.23;12.27;;;;;;;7.43;100.00;99745.19;5045989;28;20280;-71
2022/04/25 01:56:48;;;;;;;18.40;12.80;;;;;;;7.38;100.00;99748.72;5050782;28;20226;-70
2022/04/25 01:59:15;;;;;;;14.70;11.33;;;;;;;7.37;100.00;99747.03;5039890;28;20207;-70
2022/04/25 02:01:43;;;;;;;14.93;11.00;;;;;;;7.32;100.00;99748.91;5045243;28;20202;-71
2022/04/25 02:04:09;;;;;;;16.37;10.60;;;;;;;7.27;100.00;99739.56;5039793;28;20218;-70
2022/04/25 02:06:35;;;;;;;13.70;10.67;;;;;;;7.22;100.00;99741.41;5047454;28;20236;-71
2022/04/25 02:09:02;;;;;;;18.73;11.03;;;;;;;7.14;100.00;99751.97;5045969;28;20862;-70
2022/04/25 02:11:30;;;;;;;15.83;11.03;;;;;;;7.12;100.00;99743.38;5045486;28;20218;-71
2022/04/25 02:13:59;;;;;;;18.53;10.10;;;;;;;7.05;100.00;99747.88;5044244;28;20195;-71
2022/04/25 02:16:26;;;;;;;19.23;10.40;;;;;;;7.00;100.00;99755.78;5045486;28;20761;-71
2022/04/25 02:18:54;;;;;;;18.27;9.80;;;;;;;6.95;100.00;99755.03;5046541;28;20203;-71
2022/04/25 02:21:21;;;;;;;15.67;9.60;;;;;;;6.89;100.00;99755.19;5049779;28;20230;-71
2022/04/25 02:23:48;;;;;;;19.33;9.77;;;;;;;6.84;100.00;99754.44;5048344;28;20199;-71
2022/04/25 02:26:14;;;;;;;12.93;9.07;;;;;;;6.78;100.00;99755.44;5049740;28;20207;-71
2022/04/25 02:28:41;;;;;;;17.60;9.53;;;;;;;6.75;100.00;99767.63;5050058;28;20198;-69
2022/04/25 02:31:08;;;;;;;17.67;9.73;;;;;;;6.71;100.00;99769.44;5054480;28;20210;-69
2022/04/25 02:33:36;;;;;;;14.20;9.17;;;;;;;6.65;100.00;99764.44;5050245;28;20729;-70
2022/04/25 02:36:04;;;;;;;14.87;8.90;;;;;;;6.62;100.00;99764.50;5045304;28;20707;-71
2022/04/25 02:38:31;;;;;;;13.87;8.87;;;;;;;6.60;100.00;99766.28;5050252;28;20246;-70
2022/04/25 02:41:08;;;;;;;14.00;9.20;;;;;;;6.57;100.00;99767.19;5050618;28;20260;-70
2022/04/25 02:43:37;;;;;;;16.53;9.37;;;;;;;6.57;100.00;99774.09;5051052;28;20333;-71
2022/04/25 02:46:05;;;;;;;14.03;9.47;;;;;;;6.51;100.00;99777.69;5049966;28;20214;-70
2022/04/25 02:48:33;;;;;;;14.83;9.87;;;;;;;6.48;100.00;99776.91;5051331;28;20206;-71
2022/04/25 02:51:00;;;;;;;18.23;9.93;;;;;;;6.43;100.00;99777.00;5045163;28;20191;-71
2022/04/25 02:53:27;;;;;;;14.90;9.67;;;;;;;6.41;100.00;99781.38;5048784;28;20610;-71
2022/04/25 02:55:54;;;;;;;15.30;9.27;;;;;;;6.39;100.00;99784.00;5049155;28;20555;-71
2022/04/25 02:58:20;;;;;;;18.67;9.57;;;;;;;6.40;100.00;99779.66;5049572;28;20215;-71
2022/04/25 03:00:47;;;;;;;15.43;9.47;;;;;;;6.37;100.00;99778.00;5048690;28;20217;-71
2022/04/25 03:03:13;;;;;;;16.87;8.93;;;;;;;6.32;100.00;99784.19;5051444;28;20207;-70
2022/04/25 03:05:43;;;;;;;14.93;8.73;;;;;;;6.32;100.00;99784.19;5049751;28;20212;-72
2022/04/25 03:08:09;;;;;;;14.27;9.47;;;;;;;6.26;100.00;99785.13;5052374;28;20219;-70
2022/04/25 03:10:36;;;;;;;14.10;8.63;;;;;;;6.23;100.00;99787.81;5048997;28;20207;-71
2022/04/25 03:13:03;;;;;;;17.60;9.40;;;;;;;6.18;100.00;99795.66;5049537;28;20207;-71
2022/04/25 03:15:30;;;;;;;19.20;9.53;;;;;;;6.14;100.00;99801.81;5051240;28;20597;-71
2022/04/25 03:17:56;;;;;;;14.03;8.77;;;;;;;6.12;100.00;99798.41;5048486;28;20219;-71
2022/04/25 03:20:23;;;;;;;15.13;8.43;;;;;;;6.04;100.00;99797.69;5052403;28;20265;-71
2022/04/25 03:22:50;;;;;;;13.20;8.67;;;;;;;5.98;100.00;99793.50;5048806;28;20202;-72
2022/04/25 03:25:17;;;;;;;15.43;9.63;;;;;;;5.98;100.00;99800.41;5048855;28;20621;-70
2022/04/25 03:27:43;;;;;;;14.87;8.83;;;;;;;5.92;100.00;99809.09;5044885;28;20231;-70
2022/04/25 03:30:10;;;;;;;13.57;8.70;;;;;;;5.88;100.00;99803.16;5050623;28;20203;-71
2022/04/25 03:32:36;;;;;;;16.33;8.83;;;;;;;5.84;100.00;99813.56;5048469;28;20626;-72
2022/04/25 03:35:03;;;;;;;10.33;8.30;;;;;;;5.83;100.00;99812.72;5049120;28;20196;-69
2022/04/25 03:37:30;;;;;;;15.93;9.57;;;;;;;5.77;100.00;99814.56;5047870;28;20219;-71
2022/04/25 03:39:58;;;;;;;14.77;8.70;;;;;;;5.75;100.00;99821.53;5048759;28;20792;-71
2022/04/25 03:42:25;;;;;;;14.77;9.27;;;;;;;5.69;100.00;99814.75;5052764;28;20206;-71
2022/04/25 03:44:52;;;;;;;13.47;8.57;;;;;;;5.67;100.00;99819.09;5051446;28;20209;-70
2022/04/25 03:47:19;;;;;;;14.03;9.10;;;;;;;5.64;100.00;99819.97;5048338;28;20223;-71
2022/04/25 03:49:45;;;;;;;14.30;9.40;;;;;;;5.63;100.00;99823.47;5050501;28;20658;-70
2022/04/25 03:52:11;;;;;;;13.50;9.30;;;;;;;5.60;100.00;99823.53;5044654;28;20218;-71
2022/04/25 03:57:23;;;;;;;14.80;8.60;;;;;;;5.55;100.00;99827.06;5048690;28;20227;-71
2022/04/25 03:59:49;;;;;;;15.93;9.87;;;;;;;5.53;100.00;99837.44;5048335;28;20278;-71
2022/04/25 04:02:16;;;;;;;14.50;8.40;;;;;;;5.52;100.00;99837.47;5047173;28;20210;-70
2022/04/25 04:04:42;;;;;;;15.57;9.27;;;;;;;5.50;100.00;99835.78;5046517;28;20187;-70
2022/04/25 04:07:09;;;;;;;17.57;9.33;;;;;;;5.47;100.00;99840.13;5045114;28;20227;-71
2022/04/25 04:09:47;;;;;;;14.23;9.73;;;;;;;5.44;100.00;99840.19;5048033;28;20616;-71
2022/04/25 04:12:15;;;;;;;12.73;8.47;;;;;;;5.42;100.00;99842.81;5047853;28;20207;-71
2022/04/25 04:14:43;;;;;;;16.73;9.27;;;;;;;5.43;100.00;99852.25;5043754;28;20632;-70
2022/04/25 04:17:09;;;;;;;19.97;9.37;;;;;;;5.45;100.00;99854.81;5045347;28;20796;-70
2022/04/25 04:19:36;;;;;;;13.33;8.83;;;;;;;5.42;100.00;99853.16;5047143;28;20227;-70
2022/04/25 04:22:03;;;;;;;15.73;9.80;;;;;;;5.39;100.00;99860.94;5044254;28;20195;-71
2022/04/25 04:24:31;;;;;;;17.53;9.43;;;;;;;5.39;100.00;99860.09;5047698;28;20226;-70
2022/04/25 04:26:57;;;;;;;13.00;9.40;;;;;;;5.38;100.00;99856.69;5044100;28;20288;-70
2022/04/25 04:29:24;;;;;;;12.37;8.80;;;;;;;5.36;100.00;99866.16;5047682;28;20203;-71
2022/04/25 04:31:51;;;;;;;14.77;9.40;;;;;;;5.37;100.00;99870.47;5048813;28;20210;-70
2022/04/25 04:34:18;;;;;;;17.10;9.33;;;;;;;5.39;100.00;99878.22;5046494;28;20199;-71
2022/04/25 04:36:44;;;;;;;19.10;9.93;;;;;;;5.34;100.00;99880.84;5047671;28;20242;-69
2022/04/25 04:39:11;;;;;;;13.97;8.90;;;;;;;5.32;100.00;99880.03;5046705;28;20210;-70
2022/04/25 04:41:37;;;;;;;15.57;9.00;;;;;;;5.32;100.00;99887.78;5046612;28;20242;-71
2022/04/25 04:44:04;;;;;;;14.83;10.00;;;;;;;5.34;100.00;99891.19;5045518;28;20214;-69
2022/04/25 04:46:30;;;;;;;18.83;10.13;;;;;;;5.38;100.00;99897.16;5047431;28;20255;-71
2022/04/25 04:48:58;;;;;;;14.20;9.27;;;;;;;5.30;100.00;99902.47;5046634;28;20202;-71
2022/04/25 04:51:25;;;;;;;14.90;9.40;;;;;;;5.34;100.00;99903.28;5045995;28;20205;-71
2022/04/25 04:53:51;;;;;;;16.43;9.57;;;;;;;5.40;100.00;99904.03;5043374;28;20207;-70
2022/04/25 04:56:18;;;;;;;18.83;9.27;;;;;;;5.41;100.00;99912.63;5045893;28;20565;-70
2022/04/25 04:58:45;;;;;;;12.67;9.30;;;;;;;5.42;100.00;99911.78;5042010;28;20207;-71
2022/04/25 05:01:11;;;;;;;15.70;10.33;;;;;;;5.43;100.00;99916.88;5043200;28;20340;-71
2022/04/25 05:03:41;;;;;;;15.53;10.10;;;;;;;5.44;100.00;99922.94;5046755;28;20230;-71
2022/04/25 05:06:09;;;;;;;12.73;9.70;;;;;;;5.42;100.00;99919.53;5045435;28;20215;-71
2022/04/25 05:08:35;;;;;;;12.50;8.47;;;;;;;5.45;100.00;99925.50;5043928;28;20209;-71
2022/04/25 05:11:02;;;;;;;15.17;9.80;;;;;;;5.53;100.00;99932.28;5039738;28;20201;-71
2022/04/25 05:13:31;;;;;;;14.20;9.63;;;;;;;5.46;100.00;99934.09;5046298;28;20221;-70
2022/04/25 05:15:57;;;;;;;12.50;9.03;;;;;;;5.50;100.00;99935.75;5045887;28;20852;-70
2022/04/25 05:18:24;;;;;;;11.37;8.93;;;;;;;5.53;100.00;99927.94;5039879;28;20223;-71
2022/04/25 05:20:51;;;;;;;16.37;9.13;;;;;;;5.50;100.00;99944.38;5037545;28;20247;-70
2022/04/25 05:23:19;;;;;;;15.40;9.27;;;;;;;5.51;100.00;99945.22;5036848;28;20199;-70
2022/04/25 05:25:45;;;;;;;15.00;9.40;;;;;;;5.54;100.00;99945.19;5036299;28;20210;-69
2022/04/25 05:28:11;;;;;;;15.13;9.13;;;;;;;5.57;100.00;99946.84;5033122;28;20222;-70
2022/04/25 05:30:38;;;;;;;12.93;8.87;;;;;;;5.57;100.00;99947.69;5036837;28;20199;-71
2022/04/25 05:33:05;;;;;;;11.03;8.37;;;;;;;5.60;100.00;99950.25;5035182;28;20210;-71
2022/04/25 05:35:33;;;;;;;18.50;9.33;;;;;;;5.55;100.00;99948.63;5039548;28;20710;-70
2022/04/25 05:38:00;;;;;;;12.37;9.00;;;;;;;5.55;100.00;99957.22;5044710;28;20728;-71
2022/04/25 05:40:28;;;;;;;16.87;9.27;;;;;;;5.61;100.00;99951.09;5045847;28;20706;-71
2022/04/25 05:42:57;;;;;;;12.23;9.10;;;;;;;5.67;100.00;99964.78;5047916;28;20210;-71
2022/04/25 05:45:25;;;;;;;13.43;8.63;;;;;;;5.77;100.00;99970.66;5046116;28;20218;-71
2022/04/25 05:47:54;;;;;;;15.50;9.00;;;;;;;5.75;100.00;99974.13;5046636;28;20206;-71
2022/04/25 05:53:04;;;;;;;14.80;9.40;;;;;;;5.62;100.00;99976.94;5046321;28;20737;-71
2022/04/25 05:55:33;;;;;;;13.70;9.47;;;;;;;5.60;100.00;99983.84;5047442;28;21215;-71
2022/04/25 05:58:01;;;;;;;13.60;8.83;;;;;;;5.67;100.00;99977.72;5051316;28;20217;-71
2022/04/25 06:00:28;;;;;;;12.43;9.23;;;;;;;5.67;100.00;99988.06;5045640;28;20219;-71
2022/04/25 06:02:55;;;;;;;11.90;9.07;;;;;;;5.72;100.00;99992.28;5041711;28;20203;-71
2022/04/25 06:05:22;;;;;;;15.30;8.47;;;;;;;5.65;100.00;99994.16;5047681;28;20211;-71
2022/04/25 06:07:50;;;;;;;12.30;8.57;;;;;;;5.69;100.00;99998.38;5047450;28;20219;-71
2022/04/25 06:10:17;;;;;;;13.07;9.27;;;;;;;5.71;100.00;100000.94;5045967;28;20199;-71
2022/04/25 06:12:47;;;;;;;11.70;9.10;;;;;;;5.74;100.00;100006.91;5043637;28;20285;-71
2022/04/25 06:15:16;;;;;;;12.93;8.67;;;;;;;5.68;100.00;100005.28;5048455;28;20255;-71
2022/04/25 06:17:43;;;;;;;12.97;8.97;;;;;;;5.61;100.00;100021.78;5046669;28;20804;-71
2022/04/25 06:20:11;;;;;;;14.67;9.00;;;;;;;5.60;100.00;100019.22;5043786;28;20678;-71
2022/04/25 06:22:39;;;;;;;12.13;9.43;;;;;;;5.54;100.00;100027.94;5048676;28;20230;-71
2022/04/25 06:25:07;;;;;;;12.20;8.83;;;;;;;5.53;100.00;100027.94;5034086;28;20742;-71
2022/04/25 06:27:33;;;;;;;11.00;8.93;;;;;;;5.50;100.00;100039.19;5034289;28;20297;-71
2022/04/25 06:30:04;;;;;;;12.70;9.13;;;;;;;5.40;100.00;100033.31;5035057;28;20227;-71
2022/04/25 06:32:30;;;;;;;11.50;9.03;;;;;;;5.36;100.00;100036.78;5035540;28;20203;-71
2022/04/25 06:34:58;;;;;;;13.27;8.97;;;;;;;5.42;100.00;100033.28;5035448;28;20204;-71
2022/04/25 06:37:25;;;;;;;13.63;9.53;;;;;;;5.45;100.00;100044.44;5031991;28;20243;-71
2022/04/25 06:39:52;;;;;;;14.03;10.47;;;;;;;5.41;100.00;100045.34;5033402;28;20997;-71
2022/04/25 06:42:18;;;;;;;12.37;9.63;;;;;;;5.45;100.00;100047.03;5034278;28;20590;-71
2022/04/25 06:44:45;;;;;;;11.23;9.73;;;;;;;5.39;100.00;100046.25;5067702;28;20218;-71
2022/04/25 06:47:12;;;;;;;14.50;9.57;;;;;;;5.46;100.00;100045.28;5036984;28;20344;-71
2022/04/25 06:49:39;;;;;;;14.93;9.70;;;;;;;5.43;100.00;100047.91;5035512;28;20228;-71
2022/04/25 06:52:07;;;;;;;13.60;10.07;;;;;;;5.44;100.00;100050.47;5032725;28;20222;-71
2022/04/25 06:54:35;;;;;;;12.33;9.53;;;;;;;5.40;100.00;100050.53;5034379;28;20599;-71
2022/04/25 06:57:01;;;;;;;12.20;9.73;;;;;;;5.43;100.00;100051.34;5036698;28;20238;-71
2022/04/25 06:59:29;;;;;;;11.60;9.37;;;;;;;5.48;100.00;100057.31;5036881;28;20271;-71
2022/04/25 07:01:55;;;;;;;13.43;9.57;;;;;;;5.54;100.00;100055.50;5034480;28;20548;-71
2022/04/25 07:04:23;;;;;;;14.20;9.50;;;;;;;5.55;100.00;100055.47;5036312;28;20207;-71
2022/04/25 07:06:50;;;;;;;13.33;9.27;;;;;;;5.58;100.00;100063.22;5032842;28;20228;-71
2022/04/25 07:09:16;;;;;;;14.67;9.97;;;;;;;5.58;100.00;100055.44;5046992;28;20235;-71
2022/04/25 07:11:44;;;;;;;13.50;9.17;;;;;;;5.64;100.00;100060.50;5043845;28;20234;-71
2022/04/25 07:14:12;;;;;;;12.00;9.00;;;;;;;5.77;100.00;100061.22;5042780;28;20214;-71
2022/04/25 07:16:39;;;;;;;11.40;9.47;;;;;;;5.84;100.00;100067.13;5043040;28;20306;-71
2022/04/25 07:19:06;;;;;;;10.63;8.20;;;;;;;5.82;100.00;100072.34;5040965;28;20203;-71
2022/04/25 07:29:43;;;;;;;12.20;8.77;;;;;;;6.03;100.00;100084.13;5046551;28;20241;-71
2022/04/25 07:32:09;;;;;;;13.53;8.73;;;;;;;6.16;100.00;100089.09;5048395;28;20680;-71
2022/04/25 07:34:36;;;;;;;9.63;7.97;;;;;;;6.29;100.00;100090.59;5039740;28;20301;-71
2022/04/25 07:37:04;;;;;;;12.80;8.93;;;;;;;6.44;100.00;100090.31;5050569;28;20245;-71
2022/04/25 07:39:30;;;;;;;9.17;7.77;;;;;;;6.51;100.00;100098.84;5047561;28;20203;-71
2022/04/25 07:41:57;;;;;;;10.07;7.30;;;;;;;6.55;100.00;100097.91;5046098;28;20231;-71
2022/04/25 07:44:23;;;;;;;13.20;8.53;;;;;;;6.63;100.00;100098.63;5044973;28;20296;-71
2022/04/25 07:46:50;;;;;;;8.97;7.37;;;;;;;6.70;100.00;100103.69;5046817;28;20225;-71
2022/04/25 07:49:17;;;;;;;10.10;7.83;;;;;;;6.80;100.00;100100.88;5044301;28;20572;-71
2022/04/25 07:51:43;;;;;;;10.43;7.40;;;;;;;6.83;100.00;100110.34;5045696;28;20554;-71
2022/04/25 07:54:12;;;;;;;11.73;7.53;;;;;;;6.97;100.00;100107.50;5045997;28;20204;-71
2022/04/25 07:56:39;;;;;;;10.03;7.17;;;;;;;7.14;100.00;100109.72;5046688;28;20593;-71
2022/04/25 07:59:06;;;;;;;10.83;8.03;;;;;;;7.31;100.00;100112.84;5047051;28;20203;-71
2022/04/25 08:01:33;;;;;;;9.30;7.07;;;;;;;7.47;100.00;100120.31;5043810;28;20216;-71
2022/04/25 08:04:00;;;;;;;11.17;7.23;;;;;;;7.71;100.00;100111.13;5043038;28;20334;-71
2022/04/25 08:06:27;;;;;;;9.60;7.43;;;;;;;7.71;100.00;100119.78;5045300;28;20313;-71
2022/04/25 08:08:55;;;;;;;10.40;7.23;;;;;;;7.76;100.00;100117.09;5047207;28;20566;-71
2022/04/25 08:11:23;;;;;;;10.43;8.43;;;;;;;7.74;100.00;100118.88;5042444;28;20204;-71
2022/04/25 08:19:20;;;;;;;8.70;6.20;;;;;;;8.04;100.00;100125.09;5045396;28;20204;-71
2022/04/25 08:21:47;;;;;;;9.53;6.77;;;;;;;8.00;100.00;100140.75;5045163;28;20300;-71
2022/04/25 08:24:15;;;;;;;8.33;6.50;;;;;;;7.99;100.00;100132.13;5045418;28;20216;-71
2022/04/25 08:26:42;;;;;;;9.27;7.10;;;;;;;8.09;100.00;100138.81;5042408;28;20249;-71
2022/04/25 08:29:09;;;;;;;10.90;7.67;;;;;;;8.25;100.00;100141.91;5071164;28;20654;-71
2022/04/25 08:31:37;;;;;;;7.97;7.27;;;;;;;8.27;100.00;100149.66;5039474;28;20205;-71
2022/04/25 08:34:06;;;;;;;7.77;6.97;;;;;;;8.21;100.00;100149.78;5041233;28;20203;-71
2022/04/25 08:36:33;;;;;;;13.10;7.57;;;;;;;8.22;100.00;100143.72;5041913;28;20226;-71
2022/04/25 08:39:00;;;;;;;8.37;7.43;;;;;;;8.37;100.00;100143.31;5043923;28;20560;-71
2022/04/25 08:41:29;;;;;;;9.97;7.47;;;;;;;8.48;100.00;100153.50;5037145;28;20217;-71
2022/04/25 08:43:59;;;;;;;8.77;7.50;;;;;;;8.63;100.00;100160.03;5042136;28;20215;-71
2022/04/25 08:46:28;;;;;;;11.10;9.00;;;;;;;8.68;100.00;100159.03;5042690;28;20237;-71
2022/04/25 08:48:56;;;;;;;11.40;8.90;;;;;;;8.68;100.00;100165.97;5042632;28;20234;-71
2022/04/25 08:51:22;;;;;;;9.70;8.50;;;;;;;8.63;99.52;100170.44;5042571;28;20248;-71
2022/04/25 08:53:51;;;;;;;11.07;8.57;;;;;;;8.68;99.64;100169.41;5043840;28;20199;-71
2022/04/25 08:56:19;;;;;;;9.70;7.93;;;;;;;8.57;97.41;100171.44;5041265;28;20211;-71
2022/04/25 08:58:46;;;;;;;8.53;7.63;;;;;;;8.69;98.13;100165.09;5046803;28;20198;-71
2022/04/25 09:01:15;;;;;;;9.03;8.13;;;;;;;8.85;98.26;100171.59;5046079;28;20222;-71
2022/04/25 09:03:41;;;;;;;9.27;7.37;;;;;;;9.04;97.57;100174.56;5045516;28;20188;-71
2022/04/25 09:06:08;;;;;;;8.90;7.67;;;;;;;9.15;98.00;100176.88;5042586;28;20286;-71
2022/04/25 09:08:35;;;;;;;9.40;7.60;;;;;;;9.25;96.84;100178.34;5044992;28;20200;-71
2022/04/25 09:13:42;;;;;;;8.13;7.00;;;;;;;9.48;94.55;100184.63;5042492;28;20281;-71
2022/04/25 09:16:09;;;;;;;8.40;7.50;;;;;;;9.41;93.72;100189.16;5043312;28;20229;-71
2022/04/25 09:18:37;;;;;;;7.70;6.90;;;;;;;9.59;92.97;100190.38;5043651;28;20229;-71
2022/04/25 09:21:04;;;;;;;8.43;7.13;;;;;;;9.74;94.72;100189.06;5043657;28;20199;-71
2022/04/25 09:23:31;;;;;;;7.33;6.40;;;;;;;9.98;91.95;100187.47;5039282;28;20210;-71
2022/04/25 09:26:10;;;;;;;7.80;7.00;;;;;;;10.02;90.81;100199.50;5041489;28;20207;-71
2022/04/25 09:28:47;;;;;;;9.37;7.03;;;;;;;9.95;90.33;100192.78;5040840;28;20191;-71
2022/04/25 09:31:14;;;;;;;8.40;7.53;;;;;;;10.13;93.20;100201.78;5043901;28;20198;-71
2022/04/25 09:33:42;;;;;;;9.30;7.50;;;;;;;10.10;90.43;100209.69;5038687;28;20206;-71
2022/04/25 09:36:09;;;;;;;8.60;7.63;;;;;;;10.15;88.66;100210.41;5044808;28;20191;-71
2022/04/25 09:38:37;;;;;;;8.47;7.53;;;;;;;10.29;87.89;100209.13;5040829;28;20211;-71
2022/04/25 09:41:05;;;;;;;8.50;7.00;;;;;;;10.15;87.88;100213.03;5044837;28;20203;-71
2022/04/25 09:43:34;;;;;;;7.57;6.73;;;;;;;10.04;86.18;100220.28;5042735;28;20201;-71
2022/04/25 09:46:01;;;;;;;8.97;7.60;;;;;;;10.37;89.18;100210.59;5044703;28;20209;-71
2022/04/25 09:48:27;;;;;;;7.97;6.70;;;;;;;10.51;87.65;100211.94;5043208;28;20227;-71
2022/04/25 09:51:03;;;;;;;8.13;6.67;;;;;;;10.45;86.10;100230.34;5043709;28;20251;-71
2022/04/25 09:53:45;;;;;;;8.33;6.60;;;;;;;10.27;87.25;100219.56;5042774;28;20207;-71
2022/04/25 09:56:13;;;;;;;9.17;6.90;;;;;;;10.42;86.45;100223.50;5039957;28;20543;-71
2022/04/25 09:58:41;;;;;;;7.23;6.23;;;;;;;10.58;86.10;100218.66;5035920;28;20209;-71
2022/04/25 10:01:13;;;;;;;9.67;6.70;;;;;;;10.34;87.62;100221.16;5040743;28;20214;-71
2022/04/25 10:03:40;;;;;;;8.70;7.13;;;;;;;10.30;85.62;100219.50;5042919;28;20209;-71
2022/04/25 10:06:09;;;;;;;7.33;6.27;;;;;;;10.39;86.63;100229.66;5043499;28;20208;-71
2022/04/25 10:08:37;;;;;;;7.73;6.17;;;;;;;10.47;84.83;100225.97;5042881;28;20494;-71
2022/04/25 10:11:07;;;;;;;8.37;6.83;;;;;;;10.51;85.88;100232.78;5043210;28;20202;-71
2022/04/25 10:13:35;;;;;;;7.67;6.20;;;;;;;10.82;84.19;100226.53;5042563;28;20204;-71
2022/04/25 10:16:03;;;;;;;8.17;6.60;;;;;;;10.95;81.61;100233.06;5044901;28;20661;-71
2022/04/25 10:18:31;;;;;;;7.57;5.83;;;;;;;11.11;80.18;100228.19;5042366;28;20300;-71
2022/04/25 10:21:01;;;;;;;7.00;6.30;;;;;;;11.16;80.38;100240.16;5041922;28;20737;-71
2022/04/25 10:23:29;;;;;;;6.60;6.00;;;;;;;11.06;79.40;100243.13;5040741;28;20216;-71
2022/04/25 10:25:58;;;;;;;7.10;6.20;;;;;;;11.04;80.49;100242.34;5039027;28;20213;-71
2022/04/25 10:28:30;;;;;;;7.03;6.03;;;;;;;11.18;82.92;100242.72;5044076;28;20317;-71
2022/04/25 10:31:02;;;;;;;8.27;6.53;;;;;;;10.95;81.06;100246.97;5038688;28;20197;-71
2022/04/25 10:33:48;;;;;;;6.83;6.00;;;;;;;10.85;81.29;100244.72;5042191;28;20253;-71
2022/04/25 10:36:42;;;;;;;8.33;6.33;;;;;;;10.83;82.05;100243.91;5039873;28;20205;-71
2022/04/25 10:39:15;;;;;;;6.00;5.27;;;;;;;10.93;80.24;100258.34;5040489;28;20210;-71
2022/04/25 10:45:00;;;;;;;6.73;5.17;;;;;;;11.15;78.71;100256.72;5036304;28;20201;-71
2022/04/25 10:47:27;;;;;;;5.77;5.13;;;;;;;11.04;78.93;100258.84;5039390;28;20330;-71
2022/04/25 10:50:02;;;;;;;8.37;4.93;;;;;;;10.86;77.68;100257.69;5043297;28;20195;-71
2022/04/25 10:53:03;;;;;;;6.47;5.13;;;;;;;10.82;76.72;100252.63;5045783;28;20209;-71
2022/04/25 10:55:43;;;;;;;6.80;5.40;;;;;;;11.07;78.35;100248.31;5043951;28;20543;-71
2022/04/25 10:58:20;;;;;;;5.23;4.73;;;;;;;11.32;80.17;100248.28;5038442;28;20600;-71
2022/04/25 11:00:54;;;;;;;6.03;5.23;;;;;;;11.30;79.56;100252.72;5038822;28;20286;-71
2022/04/25 11:03:25;;;;;;;6.67;5.40;;;;;;;11.36;83.60;100244.69;5046096;28;20290;-71
2022/04/25 11:05:54;;;;;;;6.73;6.00;;;;;;;11.30;80.17;100252.72;5047383;28;20207;-71
2022/04/25 11:08:35;;;;;;;6.40;5.27;;;;;;;11.31;77.27;100264.88;5044586;28;20612;-71
2022/04/25 11:11:18;;;;;;;5.07;4.47;;;;;;;11.36;78.73;100267.31;5044550;28;20197;-71
2022/04/25 11:14:11;;;;;;;6.97;4.70;;;;;;;11.34;76.12;100272.63;5045957;28;20259;-71
2022/04/25 11:16:38;;;;;;;5.77;4.77;;;;;;;11.37;77.47;100277.69;5047027;28;20225;-71
2022/04/25 11:19:19;;;;;;;6.40;4.43;;;;;;;11.27;77.39;100275.47;5043911;28;20237;-71
2022/04/25 11:21:48;;;;;;;6.50;4.60;;;;;;;11.35;77.00;100282.13;5048812;28;20216;-71
2022/04/25 11:24:33;;;;;;;6.20;4.40;;;;;;;11.37;75.22;100287.31;5047322;28;20213;-71
2022/04/25 11:27:03;;;;;;;5.90;4.60;;;;;;;11.53;77.25;100280.63;5047899;28;20255;-71
2022/04/25 11:29:31;;;;;;;5.93;4.10;;;;;;;11.52;76.71;100285.91;5044271;28;20187;-71
2022/04/25 11:32:24;;;;;;;5.10;4.53;;;;;;;11.54;75.96;100295.41;5041317;28;20215;-71
2022/04/25 11:34:51;;;;;;;4.97;4.27;;;;;;;11.39;73.42;100300.31;5043809;28;20209;-71
2022/04/25 11:37:18;;;;;;;5.13;4.23;;;;;;;11.37;75.63;100297.75;5045109;28;20226;-71
2022/04/25 11:39:57;;;;;;;4.80;3.93;;;;;;;11.29;73.29;100303.25;5047214;28;20202;-71
2022/04/25 11:42:26;;;;;;;6.97;4.33;;;;;;;11.24;74.32;100305.16;5046792;28;20225;-71
2022/04/25 11:44:55;;;;;;;5.60;4.27;;;;;;;11.36;76.24;100293.41;5046693;28;20197;-71
2022/04/25 11:47:22;;;;;;;6.67;4.60;;;;;;;11.43;73.92;100312.34;5048393;28;20227;-71
2022/04/25 11:49:56;;;;;;;5.03;4.00;;;;;;;11.64;75.72;100305.50;5048315;28;20192;-71
2022/04/25 11:52:22;;;;;;;4.37;3.97;;;;;;;11.48;71.66;100319.09;5041230;28;20201;-71
2022/04/25 11:54:49;;;;;;;4.30;3.67;;;;;;;11.26;69.51;100339.88;5047460;28;20833;-71
2022/04/25 11:57:15;;;;;;;5.70;4.20;;;;;;;11.18;69.77;100328.81;5046924;28;20316;-71